Time;durP1;ratioP1;P1;durP2;ratioP2;P2;SDS_P1;SDS_P2;PMS_P1;PMS_P2;Temp;Humidity;BMP_temperature;BMP_pressure;BME280_temperature;BME280_humidity;BME280_pressure;Samples;Min_cycle;Max_cycle;Signal;HPM_P1;HPM_P2
2022/07/14 00:00:22;;;;;;;11.35;3.90;;;19.00;99.90;;;;;;5114398;28;20211;-69
2022/07/14 00:02:48;;;;;;;7.57;3.72;;;19.00;99.90;;;;;;5115555;28;20537;-69
2022/07/14 00:05:14;;;;;;;8.93;4.18;;;19.00;99.90;;;;;;5115393;27;20177;-69
2022/07/14 00:07:40;;;;;;;8.25;3.92;;;18.90;99.90;;;;;;5114194;28;20172;-69
2022/07/14 00:10:06;;;;;;;6.13;3.88;;;18.90;99.90;;;;;;5114626;28;20673;-69
2022/07/14 00:12:32;;;;;;;5.97;3.78;;;18.90;99.90;;;;;;5115077;28;20172;-69
2022/07/14 00:14:58;;;;;;;7.30;3.70;;;19.00;99.90;;;;;;5115771;28;20168;-69
2022/07/14 00:17:23;;;;;;;10.05;4.47;;;18.90;99.90;;;;;;5113628;28;20180;-69
2022/07/14 00:19:49;;;;;;;6.68;4.15;;;18.90;99.90;;;;;;5114969;28;20283;-69
2022/07/14 00:22:15;;;;;;;7.25;3.75;;;18.90;99.90;;;;;;5114942;28;20183;-69
2022/07/14 00:24:41;;;;;;;9.52;4.20;;;18.80;99.90;;;;;;5115438;28;20168;-69
2022/07/14 00:27:06;;;;;;;8.85;3.95;;;18.80;99.90;;;;;;5115232;28;20207;-69
2022/07/14 00:29:35;;;;;;;6.72;3.67;;;18.70;99.90;;;;;;5114670;28;20620;-69
2022/07/14 00:32:02;;;;;;;6.18;3.70;;;18.60;99.90;;;;;;5114959;28;20172;-69
2022/07/14 00:34:28;;;;;;;5.15;3.30;;;18.60;99.90;;;;;;5115191;28;20667;-69
2022/07/14 00:36:53;;;;;;;5.68;3.80;;;18.60;99.90;;;;;;5115608;28;20168;-69
2022/07/14 00:39:19;;;;;;;7.18;4.30;;;18.50;99.90;;;;;;5114963;28;20192;-69
2022/07/14 00:41:45;;;;;;;9.50;3.67;;;18.60;99.90;;;;;;5114195;28;20195;-69
2022/07/14 00:44:10;;;;;;;8.10;3.70;;;18.50;99.90;;;;;;5114358;28;20514;-69
2022/07/14 00:46:38;;;;;;;7.85;4.15;;;18.50;99.90;;;;;;5114396;28;20172;-69
2022/07/14 00:49:04;;;;;;;8.60;4.25;;;18.50;99.90;;;;;;5114767;28;20271;-69
2022/07/14 00:51:30;;;;;;;8.48;3.85;;;18.50;99.90;;;;;;5117212;28;20200;-70
2022/07/14 00:53:55;;;;;;;8.88;3.88;;;18.50;99.90;;;;;;5115695;28;20180;-70
2022/07/14 00:56:21;;;;;;;13.15;3.92;;;18.50;99.90;;;;;;5114245;28;20171;-69
2022/07/14 00:58:48;;;;;;;9.18;4.00;;;18.50;99.90;;;;;;5114400;28;20173;-69
2022/07/14 01:01:14;;;;;;;9.90;4.13;;;18.40;99.90;;;;;;5114475;28;20625;-69
2022/07/14 01:03:40;;;;;;;10.20;3.92;;;18.40;99.90;;;;;;5114678;28;20173;-69
2022/07/14 01:06:06;;;;;;;12.68;4.63;;;18.40;99.90;;;;;;5113371;28;20191;-70
2022/07/14 01:08:31;;;;;;;6.72;3.60;;;18.40;99.90;;;;;;5115792;28;20168;-70
2022/07/14 01:10:57;;;;;;;12.90;4.32;;;18.40;99.90;;;;;;5115123;28;20212;-70
2022/07/14 01:13:23;;;;;;;5.93;3.28;;;18.40;99.90;;;;;;5114906;28;20192;-70
2022/07/14 01:15:49;;;;;;;8.10;3.60;;;18.30;99.90;;;;;;5113098;28;20185;-70
2022/07/14 01:18:15;;;;;;;8.63;3.78;;;18.20;99.90;;;;;;5114496;28;20185;-70
2022/07/14 01:20:41;;;;;;;9.02;3.85;;;18.10;99.90;;;;;;5114015;28;20204;-70
2022/07/14 01:23:07;;;;;;;13.05;4.20;;;18.00;99.90;;;;;;5114282;28;20179;-70
2022/07/14 01:25:33;;;;;;;10.43;3.80;;;17.90;99.90;;;;;;5114010;28;20545;-70
2022/07/14 01:27:59;;;;;;;16.23;3.97;;;18.00;99.90;;;;;;5114239;28;20169;-70
2022/07/14 01:30:25;;;;;;;9.93;3.75;;;18.00;99.90;;;;;;5113959;28;20269;-70
2022/07/14 01:32:50;;;;;;;8.77;3.70;;;18.00;99.90;;;;;;5114909;28;20631;-70
2022/07/14 01:35:16;;;;;;;6.03;3.55;;;18.00;99.90;;;;;;5114173;28;20176;-70
2022/07/14 01:37:42;;;;;;;13.63;4.30;;;18.00;99.90;;;;;;5114440;28;20269;-70
2022/07/14 01:40:09;;;;;;;8.75;4.03;;;18.00;99.90;;;;;;5113724;28;20275;-70
2022/07/14 01:42:35;;;;;;;10.60;3.22;;;17.90;99.90;;;;;;5113959;28;20629;-71
2022/07/14 01:45:00;;;;;;;13.65;4.10;;;17.90;99.90;;;;;;5112912;28;20185;-70
2022/07/14 01:47:26;;;;;;;11.75;3.65;;;17.90;99.90;;;;;;5112822;28;20187;-70
2022/07/14 01:49:52;;;;;;;10.10;3.60;;;17.90;99.90;;;;;;5113641;28;20246;-70
2022/07/14 01:52:18;;;;;;;11.90;3.95;;;17.90;99.90;;;;;;5113833;28;20629;-70
2022/07/14 01:54:44;;;;;;;13.02;4.18;;;17.80;99.90;;;;;;5113974;28;20621;-70
2022/07/14 01:57:09;;;;;;;15.00;4.05;;;17.70;99.90;;;;;;5112736;28;20172;-70
2022/07/14 01:59:36;;;;;;;12.85;4.20;;;17.70;99.90;;;;;;5113584;28;20192;-70
2022/07/14 02:02:02;;;;;;;11.70;3.65;;;17.60;99.90;;;;;;5113877;28;20200;-71
2022/07/14 02:04:28;;;;;;;9.80;3.80;;;17.50;99.90;;;;;;5113813;28;20177;-70
2022/07/14 02:06:55;;;;;;;13.95;4.75;;;17.40;99.90;;;;;;5113718;28;20175;-70
2022/07/14 02:09:21;;;;;;;13.27;4.25;;;17.40;99.90;;;;;;5115967;28;20215;-70
2022/07/14 02:14:32;;;;;;;10.18;4.00;;;17.30;99.90;;;;;;5117433;28;20210;-70
2022/07/14 02:16:58;;;;;;;14.38;3.97;;;17.30;99.90;;;;;;5115932;28;20225;-70
2022/07/14 02:19:24;;;;;;;11.77;4.82;;;17.30;99.90;;;;;;5117247;28;20211;-69
2022/07/14 02:21:51;;;;;;;13.00;3.58;;;17.30;99.90;;;;;;5117179;28;20180;-71
2022/07/14 02:24:17;;;;;;;13.80;4.35;;;17.30;99.90;;;;;;5115722;28;20272;-70
2022/07/14 02:26:44;;;;;;;11.30;3.53;;;17.40;99.90;;;;;;5116672;28;20555;-70
2022/07/14 02:29:10;;;;;;;16.80;4.00;;;17.30;99.90;;;;;;5116658;28;20172;-70
2022/07/14 02:31:36;;;;;;;15.85;4.13;;;17.30;99.90;;;;;;5116789;28;20169;-70
2022/07/14 02:34:02;;;;;;;9.20;3.53;;;17.30;99.90;;;;;;5116922;28;20502;-70
2022/07/14 02:36:28;;;;;;;12.18;3.95;;;17.30;99.90;;;;;;5116875;28;20161;-70
2022/07/14 02:38:55;;;;;;;13.82;4.07;;;17.30;99.90;;;;;;5116874;28;20243;-70
2022/07/14 02:41:21;;;;;;;13.23;3.63;;;17.30;99.90;;;;;;5116253;28;20214;-70
2022/07/14 02:43:47;;;;;;;12.52;3.42;;;17.40;99.90;;;;;;5116431;28;20225;-70
2022/07/14 02:46:13;;;;;;;11.77;3.60;;;17.40;99.90;;;;;;5115344;28;20561;-70
2022/07/14 02:48:39;;;;;;;11.95;4.28;;;17.40;99.90;;;;;;5116403;28;20576;-70
2022/07/14 02:51:07;;;;;;;10.27;3.88;;;17.50;99.90;;;;;;5116475;28;20727;-70
2022/07/14 02:53:34;;;;;;;9.38;3.83;;;17.50;99.90;;;;;;5116526;28;20256;-70
2022/07/14 02:56:01;;;;;;;10.68;4.15;;;17.50;99.90;;;;;;5116264;28;20647;-70
2022/07/14 02:58:27;;;;;;;10.90;3.67;;;17.50;99.90;;;;;;5116797;28;20243;-70
2022/07/14 03:00:53;;;;;;;10.77;3.88;;;17.50;99.90;;;;;;5116450;28;20220;-70
2022/07/14 03:03:20;;;;;;;16.25;4.13;;;17.50;99.90;;;;;;5116260;28;20179;-70
2022/07/14 03:05:46;;;;;;;13.98;4.60;;;17.50;99.90;;;;;;5114967;28;20187;-70
2022/07/14 03:08:12;;;;;;;11.77;3.88;;;17.50;99.90;;;;;;5116382;28;20199;-70
2022/07/14 03:10:38;;;;;;;11.70;3.88;;;17.50;99.90;;;;;;5114526;28;20204;-70
2022/07/14 03:13:04;;;;;;;12.50;4.07;;;17.50;99.90;;;;;;5116225;28;20206;-70
2022/07/14 03:15:30;;;;;;;7.30;3.38;;;17.40;99.90;;;;;;5115855;28;20173;-70
2022/07/14 03:17:56;;;;;;;14.40;3.75;;;17.40;99.90;;;;;;5114354;28;20543;-70
2022/07/14 03:20:22;;;;;;;8.98;3.60;;;17.40;99.90;;;;;;5113412;28;20228;-70
2022/07/14 03:22:47;;;;;;;14.40;3.90;;;17.40;99.90;;;;;;5116084;28;20172;-70
2022/07/14 03:25:13;;;;;;;10.65;4.18;;;17.40;99.90;;;;;;5115927;28;20186;-69
2022/07/14 03:27:40;;;;;;;15.93;4.28;;;17.40;99.90;;;;;;5115981;28;20211;-70
2022/07/14 03:30:07;;;;;;;10.73;4.10;;;17.40;99.90;;;;;;5115629;28;20211;-70
2022/07/14 03:32:33;;;;;;;13.70;3.97;;;17.40;99.90;;;;;;5115388;28;20668;-70
2022/07/14 03:34:59;;;;;;;9.90;3.65;;;17.40;99.90;;;;;;5115883;28;20179;-70
2022/07/14 03:37:25;;;;;;;14.25;3.97;;;17.40;99.90;;;;;;5115880;28;20168;-70
2022/07/14 03:39:51;;;;;;;11.90;3.47;;;17.30;99.90;;;;;;5114305;28;20203;-70
2022/07/14 03:42:17;;;;;;;13.60;4.53;;;17.30;99.90;;;;;;5115119;28;20175;-70
2022/07/14 03:44:44;;;;;;;11.10;4.32;;;17.30;99.90;;;;;;5115447;28;20176;-70
2022/07/14 03:47:10;;;;;;;13.80;4.32;;;17.30;99.90;;;;;;5115395;28;20172;-70
2022/07/14 03:49:36;;;;;;;14.93;4.35;;;17.20;99.90;;;;;;5115029;28;20578;-70
2022/07/14 03:52:02;;;;;;;11.60;3.95;;;17.20;99.90;;;;;;5115594;28;20171;-70
2022/07/14 03:54:28;;;;;;;18.45;4.43;;;17.20;99.90;;;;;;5115249;28;20169;-70
2022/07/14 03:56:54;;;;;;;14.88;4.05;;;17.20;99.90;;;;;;5115037;28;20628;-70
2022/07/14 03:59:20;;;;;;;13.18;3.83;;;17.20;99.90;;;;;;5113970;28;20263;-70
2022/07/14 04:01:45;;;;;;;12.82;3.83;;;17.20;99.90;;;;;;5115016;28;20172;-70
2022/07/14 04:04:11;;;;;;;11.43;4.05;;;17.10;99.90;;;;;;5115312;28;20173;-70
2022/07/14 04:06:37;;;;;;;12.82;4.15;;;17.10;99.90;;;;;;5114863;28;20180;-70
2022/07/14 04:09:03;;;;;;;13.55;3.65;;;17.20;99.90;;;;;;5114995;28;20172;-70
2022/07/14 04:11:29;;;;;;;10.73;3.55;;;17.20;99.90;;;;;;5114452;28;20173;-70
2022/07/14 04:13:55;;;;;;;9.82;4.25;;;17.20;99.90;;;;;;5114928;28;20171;-69
2022/07/14 04:16:20;;;;;;;12.75;4.10;;;17.30;99.90;;;;;;5114614;28;20165;-70
2022/07/14 04:18:46;;;;;;;18.42;4.18;;;17.30;99.90;;;;;;5114338;28;20200;-69
2022/07/14 04:21:12;;;;;;;16.10;4.15;;;17.30;99.90;;;;;;5114528;28;20245;-69
2022/07/14 04:23:39;;;;;;;14.23;4.20;;;17.30;99.90;;;;;;5114624;28;20544;-70
2022/07/14 04:26:05;;;;;;;11.30;3.90;;;17.30;99.90;;;;;;5114285;28;20164;-70
2022/07/14 04:28:31;;;;;;;14.63;4.03;;;17.30;99.90;;;;;;5114366;28;20175;-70
2022/07/14 04:30:58;;;;;;;15.45;4.18;;;17.30;99.90;;;;;;5114507;28;20291;-69
2022/07/14 04:33:26;;;;;;;14.48;3.50;;;17.30;99.90;;;;;;5115411;28;20176;-69
2022/07/14 04:35:52;;;;;;;11.82;4.13;;;17.20;99.90;;;;;;5114554;28;20168;-69
2022/07/14 04:38:18;;;;;;;13.80;4.22;;;17.20;99.90;;;;;;5115062;28;20160;-69
2022/07/14 04:40:51;;;;;;;15.02;4.72;;;17.20;99.90;;;;;;5114200;28;20244;-69
2022/07/14 04:43:18;;;;;;;13.18;3.92;;;17.20;99.90;;;;;;5114418;28;20168;-68
2022/07/14 04:45:47;;;;;;;15.35;4.47;;;17.20;99.90;;;;;;5114075;28;20211;-68
2022/07/14 04:48:13;;;;;;;14.55;3.80;;;17.20;99.90;;;;;;5112796;28;20180;-67
2022/07/14 04:53:23;;;;;;;11.30;4.00;;;17.20;99.90;;;;;;5114247;28;20213;-67
2022/07/14 04:55:49;;;;;;;14.35;4.32;;;17.10;99.90;;;;;;5113983;28;20248;-67
2022/07/14 04:58:16;;;;;;;11.02;3.63;;;17.00;99.90;;;;;;5114518;28;20519;-67
2022/07/14 05:00:42;;;;;;;8.18;3.22;;;17.00;99.90;;;;;;5113849;28;20196;-67
2022/07/14 05:03:08;;;;;;;14.20;3.85;;;17.10;99.90;;;;;;5113801;28;20180;-67
2022/07/14 05:05:33;;;;;;;12.60;4.03;;;17.20;99.90;;;;;;5113771;28;20543;-67
2022/07/14 05:07:59;;;;;;;16.70;4.55;;;17.20;99.90;;;;;;5114061;28;20529;-67
2022/07/14 05:10:25;;;;;;;14.25;3.92;;;17.20;99.90;;;;;;5113526;28;20208;-67
2022/07/14 05:12:51;;;;;;;16.95;4.63;;;17.20;99.90;;;;;;5113689;28;20260;-67
2022/07/14 05:15:17;;;;;;;15.43;4.38;;;17.20;99.90;;;;;;5113621;28;20243;-67
2022/07/14 05:17:43;;;;;;;12.52;4.18;;;17.30;99.90;;;;;;5113588;28;20534;-67
2022/07/14 05:20:09;;;;;;;16.00;4.85;;;17.30;99.90;;;;;;5113572;28;20732;-67
2022/07/14 05:22:39;;;;;;;15.85;4.20;;;17.30;99.90;;;;;;5113804;28;20187;-67
2022/07/14 05:25:07;;;;;;;15.10;4.55;;;17.30;99.90;;;;;;5113635;28;20233;-67
2022/07/14 05:27:33;;;;;;;17.15;4.50;;;17.30;99.90;;;;;;5113569;28;20200;-68
2022/07/14 05:29:59;;;;;;;16.55;4.18;;;17.30;99.90;;;;;;5113657;28;20243;-68
2022/07/14 05:32:24;;;;;;;17.67;4.50;;;17.30;99.90;;;;;;5113772;28;20165;-67
2022/07/14 05:34:50;;;;;;;14.95;4.68;;;17.20;99.90;;;;;;5113784;28;20655;-67
2022/07/14 05:37:16;;;;;;;8.65;3.95;;;17.20;99.90;;;;;;5112245;28;20188;-68
2022/07/14 05:39:42;;;;;;;11.65;4.43;;;17.20;99.90;;;;;;5113378;28;20243;-68
2022/07/14 05:42:07;;;;;;;9.27;4.18;;;17.20;99.90;;;;;;5113192;28;20183;-68
2022/07/14 05:44:36;;;;;;;13.88;3.92;;;17.30;99.90;;;;;;5116402;28;20176;-68
2022/07/14 05:47:02;;;;;;;14.20;4.30;;;17.40;99.90;;;;;;5117266;28;20168;-68
2022/07/14 05:49:27;;;;;;;14.98;4.20;;;17.40;99.90;;;;;;5117035;28;20218;-68
2022/07/14 05:51:53;;;;;;;14.90;4.45;;;17.50;99.90;;;;;;5117205;28;20165;-68
2022/07/14 05:54:19;;;;;;;21.48;5.00;;;17.60;99.90;;;;;;5117733;28;20164;-68
2022/07/14 05:56:44;;;;;;;15.43;4.22;;;17.60;99.90;;;;;;5117073;28;20251;-69
2022/07/14 05:59:10;;;;;;;13.35;4.00;;;17.70;99.90;;;;;;5117541;28;20222;-69
2022/07/14 06:01:36;;;;;;;10.70;4.35;;;17.70;99.90;;;;;;5117590;28;20583;-69
2022/07/14 06:04:02;;;;;;;11.63;3.90;;;17.70;99.90;;;;;;5117067;28;20172;-69
2022/07/14 06:06:27;;;;;;;13.65;4.53;;;17.80;99.90;;;;;;5117150;28;20172;-69
2022/07/14 06:08:53;;;;;;;11.98;4.20;;;17.80;99.90;;;;;;5117476;28;20200;-69
2022/07/14 06:11:19;;;;;;;18.92;4.93;;;17.90;99.90;;;;;;5116546;28;20302;-69
2022/07/14 06:13:45;;;;;;;9.70;4.13;;;17.90;99.90;;;;;;5116820;28;20173;-69
2022/07/14 06:16:12;;;;;;;15.85;4.65;;;17.90;99.90;;;;;;5117026;28;20188;-69
2022/07/14 06:18:38;;;;;;;11.98;4.13;;;17.90;99.90;;;;;;5116454;28;20653;-69
2022/07/14 06:21:08;;;;;;;15.15;4.70;;;18.00;99.90;;;;;;5116539;28;20253;-69
2022/07/14 06:23:34;;;;;;;11.30;4.20;;;18.00;99.90;;;;;;5116579;28;20203;-69
2022/07/14 06:25:59;;;;;;;15.88;5.15;;;18.00;99.90;;;;;;5116586;28;20200;-69
2022/07/14 06:28:26;;;;;;;16.73;4.85;;;18.00;99.90;;;;;;5116761;28;20191;-69
2022/07/14 06:30:52;;;;;;;12.75;4.40;;;18.00;99.90;;;;;;5116717;28;20196;-69
2022/07/14 06:33:17;;;;;;;10.13;4.45;;;18.10;99.90;;;;;;5116741;28;20251;-69
2022/07/14 06:35:43;;;;;;;16.13;4.55;;;18.20;99.90;;;;;;5116660;28;20187;-69
2022/07/14 06:38:09;;;;;;;14.80;4.45;;;18.30;99.90;;;;;;5115409;28;20180;-68
2022/07/14 06:40:37;;;;;;;12.32;4.60;;;18.30;99.90;;;;;;5116095;28;20188;-69
2022/07/14 06:43:03;;;;;;;18.35;5.57;;;18.50;99.90;;;;;;5116353;28;20199;-69
2022/07/14 06:45:28;;;;;;;20.27;5.47;;;18.30;99.90;;;;;;5116249;28;20562;-69
2022/07/14 06:47:55;;;;;;;14.23;5.35;;;18.30;99.90;;;;;;5115104;28;20173;-68
2022/07/14 06:50:21;;;;;;;12.02;4.35;;;18.20;99.90;;;;;;5115867;28;20291;-69
2022/07/14 06:52:47;;;;;;;12.00;4.43;;;18.40;99.90;;;;;;5116336;28;20256;-68
2022/07/14 06:55:12;;;;;;;12.40;4.93;;;18.40;99.90;;;;;;5115384;28;20221;-69
2022/07/14 06:57:38;;;;;;;14.77;4.53;;;18.50;99.90;;;;;;5115739;28;20243;-69
2022/07/14 07:00:07;;;;;;;20.67;5.00;;;18.60;99.90;;;;;;5115832;28;20196;-69
2022/07/14 07:02:35;;;;;;;18.98;5.60;;;18.70;99.90;;;;;;5114547;28;20187;-69
2022/07/14 07:07:47;;;;;;;18.70;4.55;;;18.80;99.90;;;;;;5116408;28;20260;-68
2022/07/14 07:10:13;;;;;;;20.50;5.90;;;18.90;99.90;;;;;;5115702;28;20743;-69
2022/07/14 07:12:38;;;;;;;17.27;5.15;;;19.00;99.90;;;;;;5115545;28;20173;-69
2022/07/14 07:15:05;;;;;;;12.77;4.30;;;18.80;99.90;;;;;;5115628;28;20180;-69
2022/07/14 07:17:30;;;;;;;17.23;5.25;;;18.80;99.90;;;;;;5115724;28;20601;-69
2022/07/14 07:19:56;;;;;;;13.85;5.05;;;18.70;99.90;;;;;;5115955;28;20286;-69
2022/07/14 07:22:22;;;;;;;14.50;5.22;;;18.80;99.90;;;;;;5115867;28;20172;-69
2022/07/14 07:24:47;;;;;;;14.35;5.60;;;18.90;99.90;;;;;;5115503;28;20257;-69
2022/07/14 07:27:13;;;;;;;18.60;5.65;;;18.90;99.90;;;;;;5115363;28;20568;-69
2022/07/14 07:29:39;;;;;;;17.50;5.60;;;18.90;99.90;;;;;;5115479;28;20207;-69
2022/07/14 07:32:05;;;;;;;10.48;4.53;;;19.00;99.90;;;;;;5115381;28;20171;-69
2022/07/14 07:34:31;;;;;;;13.10;4.70;;;19.20;99.90;;;;;;5116013;28;20176;-69
2022/07/14 07:36:57;;;;;;;15.75;5.15;;;19.30;99.90;;;;;;5115439;28;20164;-69
2022/07/14 07:39:22;;;;;;;15.40;4.68;;;19.40;99.90;;;;;;5115528;28;20192;-69
2022/07/14 07:41:48;;;;;;;17.80;5.53;;;19.20;99.90;;;;;;5115271;28;20169;-69
2022/07/14 07:44:14;;;;;;;16.38;4.70;;;19.10;99.90;;;;;;5114099;28;20176;-69
2022/07/14 07:46:39;;;;;;;13.93;5.10;;;19.20;99.90;;;;;;5115922;28;20173;-69
2022/07/14 07:49:06;;;;;;;11.60;4.30;;;19.30;99.90;;;;;;5118403;28;20176;-69
2022/07/14 07:51:32;;;;;;;13.27;4.80;;;19.40;99.90;;;;;;5119154;28;20205;-69
2022/07/14 07:53:57;;;;;;;10.10;4.45;;;19.50;99.90;;;;;;5118988;28;20169;-69
2022/07/14 07:56:23;;;;;;;14.00;5.63;;;19.50;99.90;;;;;;5116830;28;20180;-69
2022/07/14 07:58:49;;;;;;;13.55;4.60;;;19.50;99.90;;;;;;5114914;28;20180;-69
2022/07/14 08:01:14;;;;;;;10.52;5.05;;;19.60;99.90;;;;;;5116568;28;20231;-69
2022/07/14 08:03:40;;;;;;;13.90;4.55;;;19.70;99.90;;;;;;5114050;28;20183;-69
2022/07/14 08:06:06;;;;;;;9.68;4.40;;;19.80;99.90;;;;;;5114679;28;20251;-69
2022/07/14 08:08:32;;;;;;;14.18;5.45;;;19.90;99.90;;;;;;5115003;28;20554;-69
2022/07/14 08:10:58;;;;;;;17.40;5.05;;;19.90;99.90;;;;;;5114246;28;20192;-69
2022/07/14 08:13:23;;;;;;;9.70;3.90;;;20.00;99.90;;;;;;5114982;28;20172;-69
2022/07/14 08:15:49;;;;;;;9.32;3.55;;;20.00;99.90;;;;;;5114903;28;20222;-69
2022/07/14 08:18:16;;;;;;;16.90;5.35;;;20.10;99.90;;;;;;5114785;28;20212;-69
2022/07/14 08:20:41;;;;;;;10.27;4.13;;;20.20;99.90;;;;;;5114292;28;20245;-67
2022/07/14 08:23:09;;;;;;;12.10;4.45;;;20.30;99.90;;;;;;5114812;28;20540;-69
2022/07/14 08:25:34;;;;;;;12.48;5.20;;;20.30;99.90;;;;;;5114692;28;20538;-69
2022/07/14 08:28:00;;;;;;;14.27;6.38;;;20.20;99.90;;;;;;5114115;28;20255;-69
2022/07/14 08:30:26;;;;;;;10.30;4.88;;;20.00;99.90;;;;;;5114201;28;20547;-69
2022/07/14 08:32:53;;;;;;;17.90;6.47;;;19.90;99.90;;;;;;5113079;28;20183;-69
2022/07/14 08:35:21;;;;;;;9.07;5.32;;;19.80;99.90;;;;;;5114391;28;20689;-69
2022/07/14 08:37:48;;;;;;;8.88;4.72;;;19.80;99.90;;;;;;5114351;28;20183;-69
2022/07/14 08:40:16;;;;;;;12.35;6.35;;;19.90;99.90;;;;;;5112953;28;20204;-69
2022/07/14 08:42:44;;;;;;;14.18;5.50;;;19.80;99.90;;;;;;5113903;28;20165;-69
2022/07/14 08:45:12;;;;;;;10.65;5.05;;;20.00;99.90;;;;;;5112895;28;20225;-69
2022/07/14 08:47:39;;;;;;;12.25;6.38;;;20.20;99.90;;;;;;5114003;28;20251;-69
2022/07/14 08:50:07;;;;;;;20.20;6.47;;;20.50;99.90;;;;;;5112762;28;20212;-69
2022/07/14 08:52:33;;;;;;;12.80;5.55;;;20.60;99.90;;;;;;5112840;28;20257;-69
2022/07/14 08:55:00;;;;;;;12.00;5.22;;;20.60;99.90;;;;;;5112853;28;20173;-69
2022/07/14 08:57:26;;;;;;;11.55;5.00;;;20.50;99.90;;;;;;5112620;28;20173;-69
2022/07/14 08:59:52;;;;;;;12.20;5.28;;;20.40;99.90;;;;;;5113975;28;20188;-69
2022/07/14 09:02:18;;;;;;;10.07;6.05;;;20.30;99.90;;;;;;5113851;28;20651;-69
2022/07/14 09:04:46;;;;;;;13.43;6.15;;;20.20;99.90;;;;;;5113877;28;20176;-69
2022/07/14 09:07:28;;;;;;;13.98;5.22;;;20.20;99.90;;;;;;5113855;28;20176;-69
2022/07/14 09:10:01;;;;;;;13.32;5.43;;;20.20;99.90;;;;;;5112738;28;20287;-69
2022/07/14 09:12:30;;;;;;;11.57;5.85;;;20.20;99.90;;;;;;5113495;28;20168;-69
2022/07/14 09:18:01;;;;;;;12.75;5.53;;;20.50;99.90;;;;;;5113909;28;20592;-69
2022/07/14 09:20:32;;;;;;;13.52;6.50;;;20.90;99.90;;;;;;5116436;28;20204;-69
2022/07/14 09:23:00;;;;;;;11.32;5.88;;;20.80;99.90;;;;;;5116574;28;20184;-69
2022/07/14 09:25:28;;;;;;;15.60;6.53;;;20.80;99.90;;;;;;5117805;28;20641;-69
2022/07/14 09:27:54;;;;;;;9.27;4.55;;;20.90;99.90;;;;;;5117485;28;20176;-69
2022/07/14 09:30:21;;;;;;;13.40;5.18;;;20.90;99.90;;;;;;5116434;28;20239;-69
2022/07/14 09:33:04;;;;;;;13.88;4.78;;;21.30;99.90;;;;;;5117591;28;20168;-69
2022/07/14 09:35:38;;;;;;;6.57;3.75;;;21.60;99.90;;;;;;5117824;28;20164;-69
2022/07/14 09:38:17;;;;;;;11.25;4.57;;;21.90;99.90;;;;;;5117802;28;20562;-69
2022/07/14 09:40:44;;;;;;;8.25;4.13;;;22.10;99.90;;;;;;5117523;28;20661;-69
2022/07/14 09:43:12;;;;;;;12.38;4.72;;;22.10;99.90;;;;;;5115808;28;20611;-69
2022/07/14 09:45:45;;;;;;;11.45;3.63;;;21.80;99.90;;;;;;5117278;28;20648;-69
2022/07/14 09:48:12;;;;;;;8.73;3.03;;;21.60;99.90;;;;;;5116085;28;20176;-69
2022/07/14 09:50:50;;;;;;;10.00;3.50;;;21.40;99.90;;;;;;5115807;28;20217;-69
2022/07/14 09:53:31;;;;;;;6.10;3.00;;;21.30;99.90;;;;;;5116113;28;20180;-69
2022/07/14 09:56:10;;;;;;;11.27;3.25;;;21.30;99.90;;;;;;5115922;28;20172;-69
2022/07/14 09:58:44;;;;;;;9.85;3.53;;;21.40;99.90;;;;;;5115783;28;20172;-69
2022/07/14 10:01:18;;;;;;;8.23;3.85;;;21.50;99.90;;;;;;5117604;28;20196;-69
2022/07/14 10:03:53;;;;;;;10.10;3.80;;;21.80;99.90;;;;;;5115690;28;20548;-69
2022/07/14 10:06:21;;;;;;;9.30;4.20;;;21.80;99.90;;;;;;5116966;28;20209;-69
2022/07/14 10:08:53;;;;;;;11.18;4.40;;;22.10;99.90;;;;;;5115624;28;20176;-69
2022/07/14 10:11:19;;;;;;;12.27;4.68;;;22.30;99.90;;;;;;5116784;28;20200;-70
2022/07/14 10:13:45;;;;;;;10.68;4.32;;;22.40;99.90;;;;;;5117364;28;20172;-69
2022/07/14 10:16:12;;;;;;;10.55;4.10;;;22.90;99.90;;;;;;5115532;28;20289;-69
2022/07/14 10:18:39;;;;;;;10.60;4.18;;;22.90;99.90;;;;;;5116512;28;20237;-69
2022/07/14 10:21:06;;;;;;;10.02;4.13;;;23.20;99.90;;;;;;5116705;28;20550;-69
2022/07/14 10:23:32;;;;;;;10.50;4.28;;;23.40;99.90;;;;;;5116931;28;20168;-69
2022/07/14 10:25:59;;;;;;;8.60;3.70;;;23.20;99.90;;;;;;5115351;28;20302;-70
2022/07/14 10:28:26;;;;;;;12.13;4.00;;;23.40;99.90;;;;;;5115045;28;20238;-70
2022/07/14 10:31:10;;;;;;;5.55;2.70;;;23.40;99.90;;;;;;5116554;28;20235;-70
2022/07/14 10:34:21;;;;;;;6.70;3.53;;;23.40;99.90;;;;;;5115454;28;20533;-69
2022/07/14 10:37:02;;;;;;;8.77;2.92;;;23.50;99.90;;;;;;5091960;28;20275;-69
2022/07/14 10:39:39;;;;;;;9.57;2.53;;;23.20;99.90;;;;;;5116663;28;20577;-69
2022/07/14 10:42:48;;;;;;;8.65;2.85;;;23.10;99.90;;;;;;5116181;28;20160;-69
2022/07/14 10:45:14;;;;;;;8.48;2.72;;;22.80;99.90;;;;;;5115006;28;20172;-71
2022/07/14 10:47:49;;;;;;;7.53;2.60;;;22.80;99.90;;;;;;5116305;28;20164;-70
2022/07/14 10:50:23;;;;;;;6.97;2.63;;;22.90;99.90;;;;;;5114863;28;20632;-70
2022/07/14 10:52:55;;;;;;;5.03;2.28;;;22.90;99.90;;;;;;5116936;28;20232;-70
2022/07/14 10:55:29;;;;;;;7.63;2.45;;;22.90;99.90;;;;;;5115060;28;20550;-70
2022/07/14 10:58:03;;;;;;;7.18;2.95;;;22.90;99.90;;;;;;5115798;28;20156;-68
2022/07/14 11:00:43;;;;;;;6.32;1.95;;;22.90;99.90;;;;;;5116016;28;20606;-68
2022/07/14 11:03:32;;;;;;;8.45;2.22;;;23.20;99.90;;;;;;5116349;28;20541;-68
2022/07/14 11:06:02;;;;;;;7.93;1.90;;;23.10;99.90;;;;;;5111061;27;20287;-68
2022/07/14 11:08:28;;;;;;;5.85;2.10;;;23.20;99.90;;;;;;5114845;28;20195;-68
2022/07/14 11:10:55;;;;;;;7.40;2.05;;;23.40;99.90;;;;;;5115555;28;20249;-68
2022/07/14 11:13:22;;;;;;;5.10;1.75;;;23.60;99.90;;;;;;5115562;27;20218;-68
2022/07/14 11:15:59;;;;;;;6.05;1.70;;;23.90;99.90;;;;;;5116307;28;20159;-68
2022/07/14 11:18:37;;;;;;;5.68;1.83;;;24.00;99.90;;;;;;5114180;28;20190;-68
2022/07/14 11:21:07;;;;;;;9.90;2.50;;;23.80;99.90;;;;;;5115593;28;20196;-68
2022/07/14 11:23:33;;;;;;;4.38;1.70;;;23.50;99.90;;;;;;5115559;28;20183;-68
2022/07/14 11:26:05;;;;;;;3.60;1.70;;;23.60;99.90;;;;;;5114312;28;20619;-68
2022/07/14 11:28:51;;;;;;;5.13;1.70;;;23.90;99.90;;;;;;5115458;28;20547;-68
2022/07/14 11:31:18;;;;;;;6.18;1.80;;;24.30;99.90;;;;;;5115340;28;20265;-69
2022/07/14 11:36:33;;;;;;;4.13;2.22;;;24.60;99.90;;;;;;5115874;28;20210;-68
2022/07/14 11:39:16;;;;;;;5.57;1.60;;;24.50;99.90;;;;;;5114017;28;20173;-69
2022/07/14 11:41:50;;;;;;;5.47;1.92;;;24.40;99.90;;;;;;5114497;28;20164;-69
2022/07/14 11:44:40;;;;;;;5.63;1.80;;;24.50;99.90;;;;;;5115239;28;20159;-69
2022/07/14 11:47:31;;;;;;;4.47;1.70;;;24.30;99.90;;;;;;5115233;27;20156;-69
2022/07/14 11:50:03;;;;;;;6.80;1.90;;;24.40;99.90;;;;;;5114950;28;20260;-69
2022/07/14 11:52:35;;;;;;;2.13;1.50;;;24.40;99.90;;;;;;5113742;28;20694;-68
2022/07/14 11:55:03;;;;;;;4.55;1.73;;;24.30;99.90;;;;;;5115021;28;20600;-68
2022/07/14 11:57:29;;;;;;;3.63;1.48;;;24.60;99.90;;;;;;5114522;27;20172;-69
2022/07/14 12:00:08;;;;;;;6.28;1.73;;;24.70;99.90;;;;;;5115220;27;20195;-69
2022/07/14 12:02:49;;;;;;;3.28;1.67;;;25.00;99.90;;;;;;5113435;28;20180;-69
2022/07/14 12:05:15;;;;;;;3.13;1.40;;;25.20;99.90;;;;;;5115028;28;20156;-69
2022/07/14 12:07:51;;;;;;;5.40;1.88;;;25.10;99.90;;;;;;5115201;28;20179;-69
2022/07/14 12:10:36;;;;;;;6.63;1.92;;;25.40;99.90;;;;;;5115201;28;20207;-69
2022/07/14 12:13:03;;;;;;;6.32;1.70;;;25.50;99.90;;;;;;5114463;28;20239;-69
2022/07/14 12:15:30;;;;;;;4.40;1.80;;;25.50;99.90;;;;;;5113434;28;20203;-68
2022/07/14 12:17:56;;;;;;;6.20;1.95;;;25.40;99.90;;;;;;5114632;28;20188;-69
2022/07/14 12:20:23;;;;;;;5.68;1.60;;;25.70;99.90;;;;;;5114371;28;20703;-68
2022/07/14 12:22:54;;;;;;;4.75;1.63;;;25.50;99.90;;;;;;5114820;28;20637;-69
2022/07/14 12:25:32;;;;;;;8.13;2.10;;;25.20;99.90;;;;;;5114425;28;20263;-70
2022/07/14 12:28:00;;;;;;;5.40;1.85;;;25.30;99.90;;;;;;5114258;28;20149;-70
2022/07/14 12:30:49;;;;;;;7.95;2.00;;;25.40;99.90;;;;;;5114460;28;20249;-70
2022/07/14 12:33:18;;;;;;;4.65;2.03;;;25.60;99.90;;;;;;5114805;28;20202;-69
2022/07/14 12:35:46;;;;;;;4.75;1.50;;;25.90;99.90;;;;;;5114623;28;20221;-70
2022/07/14 12:38:13;;;;;;;6.78;2.00;;;26.10;99.90;;;;;;5114268;28;20171;-69
2022/07/14 12:40:39;;;;;;;8.45;2.13;;;26.20;99.90;;;;;;5114141;28;20192;-69
2022/07/14 12:43:08;;;;;;;6.22;1.80;;;25.70;99.90;;;;;;5115415;28;20177;-68
2022/07/14 12:46:18;;;;;;;6.85;1.90;;;25.90;99.90;;;;;;5114184;28;20640;-69
2022/07/14 12:48:51;;;;;;;4.78;1.83;;;26.00;99.90;;;;;;5068201;28;20226;-69
2022/07/14 12:51:20;;;;;;;7.22;1.80;;;26.00;99.90;;;;;;5051545;28;20209;-69
2022/07/14 12:53:58;;;;;;;4.07;1.90;;;25.60;99.90;;;;;;5075783;28;20654;-68
2022/07/14 12:56:25;;;;;;;6.10;2.20;;;24.90;99.90;;;;;;5092445;28;20173;-68
2022/07/14 12:58:52;;;;;;;4.53;1.60;;;25.00;99.90;;;;;;5093332;28;20176;-68